Time;durP1;ratioP1;P1;durP2;ratioP2;P2;SDS_P1;SDS_P2;PMS_P1;PMS_P2;Temp;Humidity;BMP_temperature;BMP_pressure;BME280_temperature;BME280_humidity;BME280_pressure;Samples;Min_cycle;Max_cycle;Signal;HPM_P1;HPM_P2
2022/11/16 00:01:32;;;;;;;4.10;3.70;;;13.00;99.90;;;;;;5110330;28;20469;-35
2022/11/16 00:03:59;;;;;;;3.80;3.50;;;13.00;99.90;;;;;;5105079;27;20430;-35
2022/11/16 00:06:26;;;;;;;4.63;4.10;;;13.00;99.90;;;;;;5094374;28;20442;-35
2022/11/16 00:12:01;;;;;;;4.70;3.83;;;13.00;99.90;;;;;;5104755;28;20436;-35
2022/11/16 00:14:30;;;;;;;3.57;3.27;;;13.00;99.90;;;;;;5094305;27;20853;-35
2022/11/16 00:16:56;;;;;;;5.50;4.07;;;12.90;99.90;;;;;;5089662;28;20442;-35
2022/11/16 00:19:22;;;;;;;5.47;4.53;;;12.90;99.90;;;;;;5088330;28;20437;-35
2022/11/16 00:21:48;;;;;;;5.50;3.93;;;12.90;99.90;;;;;;5091502;28;20465;-35
2022/11/16 00:24:16;;;;;;;5.20;4.10;;;12.90;99.90;;;;;;5094194;27;20490;-36
2022/11/16 00:26:42;;;;;;;5.40;3.90;;;12.80;99.90;;;;;;5088307;28;20299;-36
2022/11/16 00:29:23;;;;;;;3.87;3.47;;;12.90;99.90;;;;;;5089237;28;20427;-35
2022/11/16 00:31:49;;;;;;;4.40;4.00;;;12.90;99.90;;;;;;5089480;28;20430;-35
2022/11/16 00:34:15;;;;;;;5.10;4.60;;;12.90;99.90;;;;;;5095143;28;20429;-35
2022/11/16 00:36:41;;;;;;;4.60;4.20;;;12.90;99.90;;;;;;5109955;28;20433;-36
2022/11/16 00:39:13;;;;;;;4.40;3.93;;;12.90;99.90;;;;;;5109705;28;20790;-35
2022/11/16 00:41:39;;;;;;;3.97;3.43;;;12.90;99.90;;;;;;5108341;28;20472;-35
2022/11/16 00:44:05;;;;;;;4.67;4.07;;;12.80;99.90;;;;;;5109775;28;20426;-35
2022/11/16 00:46:31;;;;;;;4.63;4.23;;;12.80;99.90;;;;;;5109635;28;20475;-36
2022/11/16 00:48:56;;;;;;;5.60;3.87;;;12.80;99.90;;;;;;5109396;28;20195;-35
2022/11/16 00:51:22;;;;;;;4.87;4.40;;;12.80;99.90;;;;;;5109780;28;20279;-36
2022/11/16 00:53:47;;;;;;;4.90;4.33;;;12.70;99.90;;;;;;5108214;28;20284;-35
2022/11/16 00:56:13;;;;;;;4.53;4.13;;;12.70;99.90;;;;;;5109545;28;20195;-35
2022/11/16 00:58:39;;;;;;;5.53;4.03;;;12.80;99.90;;;;;;5108306;28;20199;-36
2022/11/16 01:01:06;;;;;;;4.63;3.87;;;12.70;99.90;;;;;;5109789;28;20222;-35
2022/11/16 01:03:33;;;;;;;5.97;4.20;;;12.70;99.90;;;;;;5109446;28;20191;-35
2022/11/16 01:06:01;;;;;;;5.93;4.53;;;12.70;99.90;;;;;;5107220;28;20963;-35
2022/11/16 01:08:27;;;;;;;4.27;3.90;;;12.70;99.90;;;;;;5089701;28;20437;-35
2022/11/16 01:10:53;;;;;;;4.90;4.50;;;12.70;99.90;;;;;;5092685;28;20804;-35
2022/11/16 01:13:18;;;;;;;4.77;4.37;;;12.70;99.90;;;;;;5092775;28;20422;-35
2022/11/16 01:15:47;;;;;;;5.00;4.40;;;12.70;99.90;;;;;;5092995;28;20188;-35
2022/11/16 01:18:13;;;;;;;5.43;4.40;;;12.70;99.90;;;;;;5092871;28;20184;-35
2022/11/16 01:20:39;;;;;;;5.13;4.63;;;12.70;99.90;;;;;;5092227;28;20983;-35
2022/11/16 01:23:05;;;;;;;4.60;3.70;;;12.60;99.90;;;;;;5098581;27;20196;-35
2022/11/16 01:25:31;;;;;;;6.20;4.70;;;12.70;99.90;;;;;;5091203;28;20469;-35
2022/11/16 01:27:56;;;;;;;5.10;4.60;;;12.70;99.90;;;;;;5092537;28;20249;-35
2022/11/16 01:30:22;;;;;;;4.90;4.20;;;12.70;99.90;;;;;;5092206;28;20192;-35
2022/11/16 01:32:48;;;;;;;4.47;3.87;;;12.70;99.90;;;;;;5091446;28;20804;-35
2022/11/16 01:35:16;;;;;;;5.80;4.37;;;12.60;99.90;;;;;;5092392;28;20275;-35
2022/11/16 01:37:42;;;;;;;4.50;4.10;;;12.60;99.90;;;;;;5092333;28;20743;-35
2022/11/16 01:40:09;;;;;;;4.80;4.40;;;12.60;99.90;;;;;;5091878;28;20513;-35
2022/11/16 01:42:34;;;;;;;5.10;4.60;;;12.60;99.90;;;;;;5092137;28;20298;-35
2022/11/16 01:45:20;;;;;;;8.40;4.60;;;12.60;99.90;;;;;;5092380;28;20509;-34
2022/11/16 01:47:46;;;;;;;4.60;3.97;;;12.60;99.90;;;;;;5092310;28;20254;-36
2022/11/16 01:50:14;;;;;;;4.97;3.77;;;12.50;99.90;;;;;;5091995;28;20447;-35
2022/11/16 01:52:53;;;;;;;4.73;4.27;;;12.60;99.90;;;;;;5092224;28;20431;-35
2022/11/16 01:55:19;;;;;;;4.80;4.27;;;12.50;99.90;;;;;;5092213;28;20987;-35
2022/11/16 01:57:46;;;;;;;5.00;4.60;;;12.50;99.90;;;;;;5092085;28;20421;-35
2022/11/16 02:00:13;;;;;;;5.27;4.70;;;12.50;99.90;;;;;;5091794;28;20406;-35
2022/11/16 02:02:39;;;;;;;6.10;4.67;;;12.50;99.90;;;;;;5090287;28;20844;-35
2022/11/16 02:05:05;;;;;;;4.83;4.43;;;12.60;99.90;;;;;;5091965;28;20422;-35
2022/11/16 02:11:17;;;;;;;5.37;4.87;;;12.50;99.90;;;;;;5112260;28;20509;-35
2022/11/16 02:14:00;;;;;;;5.73;4.53;;;12.50;99.90;;;;;;5112016;28;20409;-35
2022/11/16 02:16:49;;;;;;;4.70;4.17;;;12.50;99.90;;;;;;5112300;28;20788;-35
2022/11/16 02:19:59;;;;;;;5.80;4.83;;;12.50;99.90;;;;;;5111496;28;21064;-35
2022/11/16 02:22:51;;;;;;;5.53;4.70;;;12.50;99.90;;;;;;5111829;28;20561;-35
2022/11/16 02:25:36;;;;;;;5.00;4.60;;;12.40;99.90;;;;;;5112037;28;20425;-35
2022/11/16 02:28:50;;;;;;;6.87;5.53;;;12.50;99.90;;;;;;5111921;27;20402;-35
2022/11/16 02:31:23;;;;;;;6.60;5.40;;;12.50;99.90;;;;;;5088627;28;20975;-35
2022/11/16 02:33:51;;;;;;;7.50;5.33;;;12.50;99.90;;;;;;5087715;28;20426;-35
2022/11/16 02:36:21;;;;;;;6.23;5.07;;;12.50;99.90;;;;;;5102340;28;20742;-35
2022/11/16 02:38:59;;;;;;;5.10;4.60;;;12.50;99.90;;;;;;5111652;28;20425;-35
2022/11/16 02:41:29;;;;;;;5.17;4.67;;;12.50;99.90;;;;;;5111542;28;20460;-35
2022/11/16 02:44:05;;;;;;;5.57;4.77;;;12.50;99.90;;;;;;5111565;28;20413;-36
2022/11/16 02:46:36;;;;;;;5.30;4.80;;;12.50;99.90;;;;;;5111373;28;20440;-35
2022/11/16 02:49:04;;;;;;;5.30;4.80;;;12.50;99.90;;;;;;5111502;28;20829;-35
2022/11/16 02:51:32;;;;;;;4.37;3.97;;;12.50;99.90;;;;;;5111354;28;20775;-35
2022/11/16 02:54:14;;;;;;;5.43;4.60;;;12.40;99.90;;;;;;5111309;28;20449;-36
2022/11/16 02:56:50;;;;;;;5.00;4.50;;;12.50;99.90;;;;;;5111353;28;20504;-35
2022/11/16 02:59:16;;;;;;;6.00;3.93;;;12.50;99.90;;;;;;5110893;28;20417;-35
2022/11/16 03:01:55;;;;;;;5.10;4.47;;;12.50;99.90;;;;;;5111001;28;20514;-35
2022/11/16 03:04:46;;;;;;;3.60;3.30;;;12.40;99.90;;;;;;5111194;28;20171;-35
2022/11/16 03:07:15;;;;;;;3.20;2.90;;;12.50;99.90;;;;;;5107295;28;20524;-35
2022/11/16 03:09:43;;;;;;;3.67;2.90;;;12.50;99.90;;;;;;5109522;28;20460;-35
2022/11/16 03:12:13;;;;;;;4.27;2.90;;;12.50;99.90;;;;;;5110914;28;20822;-34
2022/11/16 03:14:54;;;;;;;4.67;3.10;;;12.40;99.90;;;;;;5109768;28;20496;-35
2022/11/16 03:17:43;;;;;;;3.37;2.60;;;12.40;99.90;;;;;;5109507;28;20903;-35
2022/11/16 03:20:13;;;;;;;2.40;2.17;;;12.40;99.90;;;;;;5110706;28;20418;-35
2022/11/16 03:22:50;;;;;;;2.63;2.43;;;12.40;99.90;;;;;;5110473;28;20464;-35
2022/11/16 03:25:18;;;;;;;2.97;2.70;;;12.40;99.90;;;;;;5111018;28;20405;-35
2022/11/16 03:28:11;;;;;;;3.23;2.67;;;12.50;99.90;;;;;;5110835;28;20499;-35
2022/11/16 03:30:41;;;;;;;3.40;2.80;;;12.40;99.90;;;;;;5110761;28;20420;-35
2022/11/16 03:33:20;;;;;;;3.83;2.70;;;12.40;99.90;;;;;;5109409;28;20876;-35
2022/11/16 03:36:04;;;;;;;3.90;2.37;;;12.40;99.90;;;;;;5110724;28;20922;-35
2022/11/16 03:38:33;;;;;;;2.53;2.33;;;12.40;99.90;;;;;;5110453;28;20416;-35
2022/11/16 03:41:02;;;;;;;3.13;2.37;;;12.40;99.90;;;;;;5110664;28;20456;-35
2022/11/16 03:43:30;;;;;;;2.27;2.07;;;12.40;99.90;;;;;;5110491;28;20421;-34
2022/11/16 03:45:56;;;;;;;3.57;2.50;;;12.40;99.90;;;;;;5110784;28;20983;-35
2022/11/16 03:48:22;;;;;;;3.00;2.10;;;12.40;99.90;;;;;;5110357;28;20492;-35
2022/11/16 03:50:48;;;;;;;3.43;3.13;;;12.40;99.90;;;;;;5110482;28;20571;-34
2022/11/16 03:53:14;;;;;;;3.00;2.60;;;12.40;99.90;;;;;;5110047;28;20171;-36
2022/11/16 03:55:39;;;;;;;2.13;1.93;;;12.30;99.90;;;;;;5110435;28;20414;-35
2022/11/16 03:58:05;;;;;;;4.70;2.50;;;12.30;99.90;;;;;;5109130;28;20553;-36
2022/11/16 04:00:31;;;;;;;3.30;2.10;;;12.20;99.90;;;;;;5110090;28;20183;-35
2022/11/16 04:02:56;;;;;;;2.33;2.13;;;12.20;99.90;;;;;;5110076;28;20704;-35
2022/11/16 04:24:53;;;;;;;2.60;1.87;;;12.30;99.90;;;;;;5110277;28;20425;-35
2022/11/16 04:30:08;;;;;;;1.87;1.73;;;12.20;99.90;;;;;;5109927;28;20752;-35
2022/11/16 04:38:02;;;;;;;1.80;1.70;;;12.30;99.90;;;;;;5109948;28;20448;-35
2022/11/16 04:40:28;;;;;;;2.37;1.60;;;12.40;99.90;;;;;;5109626;28;20448;-35
2022/11/16 04:43:02;;;;;;;1.90;1.40;;;12.30;99.90;;;;;;5109894;28;20229;-35
2022/11/16 04:48:14;;;;;;;2.00;1.60;;;12.40;99.90;;;;;;5113928;28;20409;-36
2022/11/16 04:50:39;;;;;;;2.20;1.87;;;12.30;99.90;;;;;;5113512;28;20409;-36
2022/11/16 04:53:06;;;;;;;2.67;1.70;;;12.30;99.90;;;;;;5113659;28;20416;-35
2022/11/16 04:55:32;;;;;;;1.80;1.60;;;12.30;99.90;;;;;;5113413;28;20224;-36
2022/11/16 04:57:58;;;;;;;1.90;1.80;;;12.30;99.90;;;;;;5113683;28;20528;-35
2022/11/16 05:00:24;;;;;;;1.93;1.77;;;12.30;99.90;;;;;;5113269;28;20409;-35
2022/11/16 05:02:50;;;;;;;2.03;1.80;;;12.30;99.90;;;;;;5113412;28;20776;-35
2022/11/16 05:05:16;;;;;;;2.60;2.10;;;12.30;99.90;;;;;;5113290;28;20190;-35
2022/11/16 05:07:42;;;;;;;2.27;1.97;;;12.30;99.90;;;;;;5113750;28;20251;-36
2022/11/16 05:10:08;;;;;;;2.70;1.90;;;12.40;99.90;;;;;;5113159;27;20830;-35
2022/11/16 05:12:34;;;;;;;2.10;1.90;;;12.40;99.90;;;;;;5113542;28;20420;-35
2022/11/16 05:15:00;;;;;;;2.77;2.23;;;12.30;99.90;;;;;;5113479;28;20492;-35
2022/11/16 05:17:27;;;;;;;2.33;2.00;;;12.30;99.90;;;;;;5113251;28;20180;-35
2022/11/16 05:22:37;;;;;;;2.50;2.00;;;12.30;99.90;;;;;;5112721;28;20478;-35
2022/11/16 05:25:05;;;;;;;2.10;1.90;;;12.20;99.90;;;;;;5113107;28;20910;-35
2022/11/16 05:27:31;;;;;;;2.30;2.10;;;12.20;99.90;;;;;;5112927;27;20441;-35
2022/11/16 05:29:57;;;;;;;2.47;2.27;;;12.20;99.90;;;;;;5112970;28;20491;-35
2022/11/16 05:32:24;;;;;;;2.00;1.90;;;12.20;99.90;;;;;;5112699;28;20417;-35
2022/11/16 05:34:49;;;;;;;2.37;2.17;;;12.20;99.90;;;;;;5112361;28;20187;-35
2022/11/16 05:37:16;;;;;;;2.00;1.80;;;12.20;99.90;;;;;;5112530;28;20418;-35
2022/11/16 05:39:42;;;;;;;1.80;1.67;;;12.20;99.90;;;;;;5112747;28;20961;-35
2022/11/16 05:42:08;;;;;;;1.90;1.70;;;12.20;99.90;;;;;;5110883;27;20495;-35
2022/11/16 05:44:33;;;;;;;1.90;1.80;;;12.20;99.90;;;;;;5124718;27;20506;-35
2022/11/16 05:46:59;;;;;;;1.73;1.40;;;12.20;99.90;;;;;;5133422;27;20179;-35
2022/11/16 05:49:25;;;;;;;2.00;1.83;;;12.20;99.90;;;;;;5132859;27;20213;-35
2022/11/16 05:51:51;;;;;;;1.70;1.53;;;12.20;99.90;;;;;;5120359;27;20191;-35
2022/11/16 05:54:19;;;;;;;1.40;1.10;;;12.20;99.90;;;;;;5123921;27;20519;-35
2022/11/16 05:56:47;;;;;;;1.33;1.13;;;12.10;99.90;;;;;;5133074;27;20412;-35
2022/11/16 05:59:15;;;;;;;1.77;1.40;;;12.20;99.90;;;;;;5131346;27;20810;-35
2022/11/16 06:01:40;;;;;;;2.27;1.63;;;12.20;99.90;;;;;;5133125;27;20463;-35
2022/11/16 06:04:06;;;;;;;1.40;1.30;;;12.20;99.90;;;;;;5132765;27;20766;-35
2022/11/16 06:06:32;;;;;;;1.77;1.20;;;12.20;99.90;;;;;;5122087;27;20191;-34
2022/11/16 06:08:58;;;;;;;1.00;0.90;;;12.10;99.90;;;;;;5112022;28;20457;-35
2022/11/16 06:11:24;;;;;;;1.07;0.97;;;12.20;99.90;;;;;;5120853;27;20206;-35
2022/11/16 06:13:49;;;;;;;1.60;1.00;;;12.10;99.90;;;;;;5132702;27;20175;-35
2022/11/16 06:16:15;;;;;;;1.40;1.00;;;12.10;99.90;;;;;;5132704;27;20424;-35
2022/11/16 06:18:44;;;;;;;1.00;0.90;;;12.10;99.90;;;;;;5131086;27;20191;-34
2022/11/16 06:21:11;;;;;;;1.10;0.90;;;12.10;99.90;;;;;;5132330;27;20282;-35
2022/11/16 06:23:37;;;;;;;1.17;0.90;;;12.10;99.90;;;;;;5132568;27;20544;-35
2022/11/16 06:26:04;;;;;;;1.83;1.13;;;12.00;99.90;;;;;;5132754;27;20405;-35
2022/11/16 06:28:30;;;;;;;1.20;1.00;;;12.00;99.90;;;;;;5131120;27;20503;-35
2022/11/16 06:30:56;;;;;;;2.33;1.13;;;12.00;99.90;;;;;;5131259;27;20517;-35
2022/11/16 06:33:21;;;;;;;1.60;1.20;;;12.10;99.90;;;;;;5116664;27;20437;-35
2022/11/16 06:35:47;;;;;;;1.50;1.40;;;12.10;99.90;;;;;;5105141;27;20271;-35
2022/11/16 06:38:17;;;;;;;2.00;1.50;;;12.20;99.90;;;;;;5120204;27;20205;-35
2022/11/16 06:40:51;;;;;;;2.47;1.93;;;12.20;99.90;;;;;;5123493;27;20189;-35
2022/11/16 06:43:17;;;;;;;1.70;1.60;;;12.20;99.90;;;;;;5131455;27;20425;-35
2022/11/16 06:45:50;;;;;;;2.17;1.77;;;12.10;99.90;;;;;;5117659;27;20416;-35
2022/11/16 06:48:16;;;;;;;1.87;1.67;;;12.10;99.90;;;;;;5115628;27;20412;-35
2022/11/16 06:50:42;;;;;;;1.93;1.80;;;12.10;99.90;;;;;;5105023;28;20417;-34
2022/11/16 06:53:08;;;;;;;2.33;2.13;;;12.10;99.90;;;;;;5095601;28;20497;-35
2022/11/16 06:55:33;;;;;;;2.23;2.00;;;12.20;99.90;;;;;;5091139;28;20761;-35
2022/11/16 06:57:59;;;;;;;3.20;2.53;;;12.10;99.90;;;;;;5090849;28;20662;-35
2022/11/16 07:00:26;;;;;;;4.30;2.80;;;12.10;99.90;;;;;;5092142;27;20247;-36
2022/11/16 07:02:52;;;;;;;3.10;2.80;;;12.00;99.90;;;;;;5122676;27;20473;-35
2022/11/16 07:05:18;;;;;;;4.23;3.20;;;11.90;99.90;;;;;;5131635;27;20424;-35
2022/11/16 07:07:44;;;;;;;3.23;2.93;;;11.90;99.90;;;;;;5090330;28;20212;-35
2022/11/16 07:10:09;;;;;;;4.10;2.67;;;11.90;99.90;;;;;;5104498;27;20705;-35
2022/11/16 07:12:35;;;;;;;3.37;3.00;;;12.00;99.90;;;;;;5123125;27;20424;-35
2022/11/16 07:15:01;;;;;;;3.90;3.50;;;12.00;99.90;;;;;;5131381;27;20199;-36
2022/11/16 07:17:26;;;;;;;3.50;3.20;;;12.00;99.90;;;;;;5130295;27;20553;-35
2022/11/16 07:19:52;;;;;;;3.47;3.17;;;12.00;99.90;;;;;;5130159;27;20325;-34
2022/11/16 07:22:18;;;;;;;3.90;2.83;;;12.00;99.90;;;;;;5117156;27;20309;-36
2022/11/16 07:24:43;;;;;;;4.57;3.23;;;12.00;99.90;;;;;;5122433;27;20200;-35
2022/11/16 07:27:09;;;;;;;3.93;3.23;;;12.10;99.90;;;;;;5131415;27;20179;-35
2022/11/16 07:29:34;;;;;;;4.57;3.37;;;12.10;99.90;;;;;;5131097;27;20179;-35
2022/11/16 07:32:00;;;;;;;3.70;3.13;;;12.10;99.90;;;;;;5111287;27;20189;-35
2022/11/16 07:34:26;;;;;;;3.50;2.83;;;12.10;99.90;;;;;;5110332;27;20191;-35
2022/11/16 07:36:51;;;;;;;2.97;2.13;;;12.20;99.90;;;;;;5122145;27;20234;-36
2022/11/16 07:39:17;;;;;;;3.70;2.70;;;12.20;99.90;;;;;;5130690;27;20244;-35
2022/11/16 07:41:43;;;;;;;2.27;2.03;;;12.20;99.90;;;;;;5131035;27;20210;-35
2022/11/16 07:44:10;;;;;;;3.90;1.90;;;12.20;99.90;;;;;;5131102;27;20179;-35
2022/11/16 07:46:36;;;;;;;3.00;2.13;;;12.20;99.90;;;;;;5130804;27;20413;-35
2022/11/16 07:49:03;;;;;;;4.23;2.30;;;12.40;99.90;;;;;;5130810;27;20421;-35
2022/11/16 07:51:31;;;;;;;4.90;2.20;;;12.60;99.90;;;;;;5130953;27;20476;-35
2022/11/16 07:53:56;;;;;;;3.93;2.07;;;12.70;99.90;;;;;;5130853;27;20447;-35
2022/11/16 07:56:23;;;;;;;4.67;2.30;;;12.70;99.90;;;;;;5129778;27;20444;-34
2022/11/16 07:58:49;;;;;;;3.97;2.40;;;12.90;99.90;;;;;;5123686;27;20184;-35
2022/11/16 08:01:16;;;;;;;5.17;1.80;;;13.00;99.90;;;;;;5109773;28;20453;-36
2022/11/16 08:03:43;;;;;;;4.90;2.20;;;13.10;99.90;;;;;;5110162;28;20409;-35
2022/11/16 08:06:25;;;;;;;5.83;1.70;;;13.20;99.90;;;;;;5110205;28;20445;-35
2022/11/16 08:08:51;;;;;;;4.10;2.10;;;13.20;99.90;;;;;;5109923;28;20905;-35
2022/11/16 08:11:17;;;;;;;2.83;1.97;;;13.30;99.90;;;;;;5110392;28;20413;-35
2022/11/16 08:13:44;;;;;;;3.60;2.20;;;13.40;99.90;;;;;;5109832;28;20942;-35
2022/11/16 08:16:10;;;;;;;7.90;1.83;;;13.50;99.90;;;;;;5110464;28;20422;-35
2022/11/16 08:18:36;;;;;;;3.33;1.93;;;13.40;99.90;;;;;;5110992;28;20425;-35
2022/11/16 08:21:04;;;;;;;4.57;2.13;;;13.20;99.90;;;;;;5114443;28;20661;-35
2022/11/16 08:23:31;;;;;;;3.70;2.50;;;13.10;99.90;;;;;;5113976;28;20428;-35
2022/11/16 08:25:58;;;;;;;3.37;2.20;;;13.10;99.90;;;;;;5114471;28;20520;-36
2022/11/16 08:28:25;;;;;;;2.50;2.00;;;13.00;99.90;;;;;;5113794;28;20439;-35
2022/11/16 08:30:51;;;;;;;3.17;2.00;;;12.80;99.90;;;;;;5113890;28;20435;-36
2022/11/16 08:33:19;;;;;;;5.20;2.00;;;12.70;99.90;;;;;;5112587;28;20474;-35
2022/11/16 08:35:47;;;;;;;5.53;2.50;;;12.80;99.90;;;;;;5114154;28;20412;-35
2022/11/16 08:38:13;;;;;;;3.43;2.57;;;13.00;99.90;;;;;;5112836;28;20521;-35
2022/11/16 08:40:39;;;;;;;4.20;2.20;;;13.20;99.90;;;;;;5113430;28;20410;-35
2022/11/16 08:43:05;;;;;;;3.40;2.53;;;13.40;99.90;;;;;;5113695;28;20412;-35
2022/11/16 08:45:32;;;;;;;4.53;2.40;;;13.60;99.90;;;;;;5114131;28;20406;-35
2022/11/16 08:47:58;;;;;;;5.10;2.50;;;13.90;99.90;;;;;;5114000;28;20186;-35
2022/11/16 08:50:24;;;;;;;7.40;2.20;;;14.20;99.90;;;;;;5113523;28;20409;-35
2022/11/16 08:52:50;;;;;;;5.37;2.03;;;14.40;99.90;;;;;;5113646;28;20520;-35
2022/11/16 08:55:17;;;;;;;3.53;2.40;;;14.60;99.90;;;;;;5112542;28;20830;-36
2022/11/16 08:57:43;;;;;;;5.63;2.37;;;14.80;99.90;;;;;;5113750;28;20275;-36
2022/11/16 09:00:10;;;;;;;2.80;2.00;;;15.00;99.90;;;;;;5113321;28;20418;-35
2022/11/16 09:02:37;;;;;;;4.57;1.70;;;15.10;99.90;;;;;;5113416;28;20536;-35
2022/11/16 09:05:04;;;;;;;4.90;1.93;;;15.20;99.90;;;;;;5113814;28;20409;-36
2022/11/16 09:07:30;;;;;;;4.23;1.77;;;15.30;99.90;;;;;;5113531;28;20474;-35
2022/11/16 09:09:55;;;;;;;7.30;2.37;;;15.50;99.90;;;;;;5113083;28;20413;-35
2022/11/16 09:12:21;;;;;;;4.70;1.83;;;15.50;99.90;;;;;;5113231;28;20418;-35
2022/11/16 09:14:47;;;;;;;5.63;1.73;;;15.70;99.90;;;;;;5113460;28;20237;-35
2022/11/16 09:17:12;;;;;;;4.13;2.00;;;15.80;99.90;;;;;;5113413;28;20672;-34
2022/11/16 09:19:38;;;;;;;4.97;1.90;;;16.00;99.90;;;;;;5112947;28;20226;-35
2022/11/16 09:22:04;;;;;;;4.30;1.80;;;16.10;99.90;;;;;;5113184;28;20207;-35
2022/11/16 09:24:30;;;;;;;4.63;1.53;;;16.30;99.90;;;;;;5111536;28;20164;-35
2022/11/16 09:27:00;;;;;;;3.03;1.50;;;16.40;99.90;;;;;;5113219;28;20210;-35
2022/11/16 09:29:26;;;;;;;3.17;1.63;;;16.50;99.90;;;;;;5110946;28;20846;-35
2022/11/16 09:31:52;;;;;;;4.47;1.90;;;16.70;99.90;;;;;;5113286;28;20421;-35
2022/11/16 09:34:18;;;;;;;3.07;1.50;;;16.80;99.90;;;;;;5111228;28;20469;-36
2022/11/16 09:36:44;;;;;;;5.30;1.53;;;16.80;99.90;;;;;;5113197;28;20422;-35
2022/11/16 09:39:11;;;;;;;3.40;1.50;;;16.70;99.90;;;;;;5109457;28;21120;-35
2022/11/16 09:41:52;;;;;;;5.27;1.77;;;16.70;99.90;;;;;;5112863;28;20231;-36
2022/11/16 09:44:41;;;;;;;2.37;1.30;;;16.60;99.90;;;;;;5112643;28;20417;-35
2022/11/16 09:47:21;;;;;;;2.43;1.23;;;16.50;99.90;;;;;;5112887;27;20414;-35
2022/11/16 09:49:54;;;;;;;2.10;1.20;;;16.50;99.90;;;;;;5111165;28;20416;-36
2022/11/16 09:52:29;;;;;;;5.60;1.30;;;16.40;99.90;;;;;;5112502;28;20422;-35
2022/11/16 09:54:55;;;;;;;3.73;1.00;;;16.10;99.90;;;;;;5112501;28;20509;-35
2022/11/16 09:57:27;;;;;;;1.83;1.23;;;15.90;99.90;;;;;;5112630;27;20574;-35
2022/11/16 10:00:08;;;;;;;3.57;2.03;;;15.70;99.90;;;;;;5112204;28;20425;-35
2022/11/16 10:02:44;;;;;;;3.90;2.10;;;15.50;99.90;;;;;;5112177;28;20469;-35
2022/11/16 10:05:13;;;;;;;4.30;1.50;;;15.30;99.90;;;;;;5112512;28;20436;-35
2022/11/16 10:07:44;;;;;;;4.17;2.10;;;15.10;99.90;;;;;;5112245;28;20429;-35
2022/11/16 10:10:19;;;;;;;4.13;1.40;;;15.00;99.90;;;;;;5112078;28;20413;-35
2022/11/16 10:12:59;;;;;;;8.30;1.90;;;14.90;99.90;;;;;;5112149;28;20424;-35
2022/11/16 10:15:49;;;;;;;5.87;1.30;;;14.60;99.90;;;;;;5111206;28;20417;-36
2022/11/16 10:18:24;;;;;;;3.87;1.70;;;14.40;99.90;;;;;;5112121;28;20478;-35
2022/11/16 10:21:12;;;;;;;3.57;1.93;;;14.30;99.90;;;;;;5110696;28;20987;-35
2022/11/16 10:23:38;;;;;;;3.70;1.30;;;14.10;99.90;;;;;;5111662;28;20470;-35
2022/11/16 10:26:22;;;;;;;4.60;1.37;;;14.00;99.90;;;;;;5110884;28;20904;-36
2022/11/16 10:28:50;;;;;;;3.53;1.73;;;14.00;99.90;;;;;;5111603;28;20178;-35
2022/11/16 10:31:29;;;;;;;4.70;1.63;;;14.10;99.90;;;;;;5111858;28;20429;-35
2022/11/16 10:33:57;;;;;;;4.47;1.87;;;14.20;99.90;;;;;;5110177;28;20409;-35
2022/11/16 10:36:28;;;;;;;5.00;1.87;;;14.40;99.90;;;;;;5112003;28;20449;-35
2022/11/16 10:38:55;;;;;;;3.00;1.30;;;14.40;99.90;;;;;;5111544;28;20449;-35
2022/11/16 10:41:41;;;;;;;4.00;1.40;;;14.20;99.90;;;;;;5110793;28;20504;-35
2022/11/16 10:44:47;;;;;;;6.13;1.30;;;14.30;99.90;;;;;;5111788;28;20416;-35
2022/11/16 10:47:35;;;;;;;5.40;1.43;;;14.30;99.90;;;;;;5104795;28;20433;-35
2022/11/16 10:50:31;;;;;;;3.80;1.53;;;14.40;99.90;;;;;;5111149;28;20768;-35
2022/11/16 10:52:57;;;;;;;3.30;1.27;;;14.40;99.90;;;;;;5111289;28;20466;-35
2022/11/16 10:55:23;;;;;;;4.27;1.30;;;14.40;99.90;;;;;;5111573;28;20512;-35
2022/11/16 10:58:02;;;;;;;6.27;1.50;;;14.40;99.90;;;;;;5111399;28;20925;-35
2022/11/16 11:00:47;;;;;;;2.40;1.03;;;14.50;99.90;;;;;;5111100;28;20508;-35
2022/11/16 11:03:13;;;;;;;5.73;1.50;;;14.40;99.90;;;;;;5110984;28;20453;-36
2022/11/16 11:05:54;;;;;;;6.23;1.43;;;14.40;99.90;;;;;;5111320;28;21170;-35
2022/11/16 11:08:29;;;;;;;2.30;1.10;;;14.40;99.90;;;;;;5111151;28;20237;-35
2022/11/16 11:14:12;;;;;;;3.40;1.00;;;14.40;99.90;;;;;;5110827;28;20409;-35
2022/11/16 11:16:40;;;;;;;2.37;1.40;;;14.30;99.90;;;;;;5111180;28;20470;-34
2022/11/16 11:19:27;;;;;;;4.77;1.23;;;14.40;99.90;;;;;;5110464;28;20909;-35
2022/11/16 11:21:57;;;;;;;8.83;1.37;;;14.40;99.90;;;;;;5109646;28;20452;-35
2022/11/16 11:24:24;;;;;;;3.87;1.20;;;14.40;99.90;;;;;;5110550;28;20424;-36
2022/11/16 11:26:56;;;;;;;1.57;1.20;;;14.50;99.90;;;;;;5110602;28;20402;-34
2022/11/16 11:29:26;;;;;;;3.33;1.13;;;14.60;99.90;;;;;;5108089;28;20422;-36
2022/11/16 11:31:56;;;;;;;2.70;0.70;;;14.70;99.90;;;;;;5109960;28;20499;-36
2022/11/16 11:34:25;;;;;;;7.87;1.50;;;14.80;99.90;;;;;;5108940;28;20829;-35
2022/11/16 11:37:22;;;;;;;2.10;1.10;;;15.00;99.90;;;;;;5110860;28;20811;-36
2022/11/16 11:40:02;;;;;;;2.43;1.30;;;15.20;99.90;;;;;;5108386;28;20432;-35
2022/11/16 11:42:28;;;;;;;2.20;1.20;;;15.30;99.90;;;;;;5110419;28;20460;-35
2022/11/16 11:44:58;;;;;;;6.33;1.23;;;15.50;99.90;;;;;;5110748;28;20896;-36
2022/11/16 11:47:39;;;;;;;8.10;1.73;;;15.50;99.90;;;;;;5110286;28;20179;-35
2022/11/16 11:50:34;;;;;;;2.83;1.30;;;15.60;99.90;;;;;;5109662;28;20793;-35
2022/11/16 11:53:40;;;;;;;1.77;1.00;;;15.70;99.90;;;;;;5109284;28;20417;-35
2022/11/16 11:56:08;;;;;;;3.13;1.20;;;15.70;99.90;;;;;;5104645;28;20436;-35
2022/11/16 11:58:37;;;;;;;3.87;1.53;;;15.60;99.90;;;;;;5109223;28;20487;-35
2022/11/16 12:01:40;;;;;;;3.80;1.43;;;15.50;99.90;;;;;;5109660;28;20461;-35
2022/11/16 12:04:11;;;;;;;4.50;1.27;;;15.40;99.90;;;;;;5109269;28;20496;-35
2022/11/16 12:07:01;;;;;;;3.10;1.20;;;15.40;99.90;;;;;;5108176;28;20926;-35
2022/11/16 12:09:39;;;;;;;4.53;1.00;;;15.40;99.90;;;;;;5109913;28;20965;-35
2022/11/16 12:12:27;;;;;;;4.90;1.20;;;15.40;99.90;;;;;;5110288;28;21115;-35
2022/11/16 12:15:01;;;;;;;3.77;1.40;;;15.30;99.90;;;;;;5110290;28;20770;-35
2022/11/16 12:18:23;;;;;;;5.40;1.43;;;15.20;99.90;;;;;;5100926;28;20766;-35
2022/11/16 12:21:04;;;;;;;4.83;1.90;;;15.20;99.90;;;;;;5091170;28;20936;-35
2022/11/16 12:24:11;;;;;;;2.50;1.17;;;15.10;99.90;;;;;;5102440;28;20426;-36
2022/11/16 12:26:41;;;;;;;3.90;1.20;;;15.00;99.90;;;;;;5098998;28;20485;-35
2022/11/16 12:29:29;;;;;;;4.80;1.50;;;14.90;99.90;;;;;;5100965;28;20819;-35
2022/11/16 12:32:21;;;;;;;3.43;1.47;;;14.90;99.90;;;;;;5092426;28;20422;-36
2022/11/16 12:34:55;;;;;;;3.73;1.30;;;14.90;99.90;;;;;;5098936;28;20516;-36
2022/11/16 12:37:39;;;;;;;5.50;1.10;;;14.80;99.90;;;;;;5092311;28;20432;-35
2022/11/16 12:40:16;;;;;;;6.57;1.43;;;14.80;99.90;;;;;;5089457;28;20804;-35
2022/11/16 12:43:14;;;;;;;5.03;1.33;;;14.80;99.90;;;;;;5089355;28;20462;-35
2022/11/16 12:45:46;;;;;;;1.97;0.90;;;14.80;99.90;;;;;;5080318;28;20964;-35
2022/11/16 12:48:36;;;;;;;1.43;0.93;;;14.70;99.90;;;;;;5088335;28;20415;-35
2022/11/16 12:51:20;;;;;;;2.93;1.30;;;14.70;99.90;;;;;;5089795;28;20414;-35
2022/11/16 12:53:52;;;;;;;3.43;1.40;;;14.60;99.90;;;;;;5090883;28;20803;-36
2022/11/16 12:56:54;;;;;;;3.33;1.40;;;14.50;99.90;;;;;;5098345;28;20784;-35
2022/11/16 12:59:32;;;;;;;4.60;2.00;;;14.40;99.90;;;;;;5097795;28;20430;-35
2022/11/16 13:02:33;;;;;;;1.67;1.10;;;14.40;99.90;;;;;;5103475;28;20465;-35
2022/11/16 13:05:43;;;;;;;6.00;1.17;;;14.50;99.90;;;;;;5091213;28;20438;-36
2022/11/16 13:08:38;;;;;;;5.40;1.30;;;14.50;99.90;;;;;;5087170;28;20430;-35
2022/11/16 13:11:13;;;;;;;2.60;0.90;;;14.50;99.90;;;;;;5089170;28;20437;-36
2022/11/16 13:13:41;;;;;;;1.30;0.90;;;14.40;99.90;;;;;;5092639;28;20422;-36
2022/11/16 13:16:07;;;;;;;5.50;1.97;;;14.30;99.90;;;;;;5093096;28;20425;-35
2022/11/16 13:18:38;;;;;;;2.80;1.07;;;14.30;99.90;;;;;;5092748;28;20472;-36
2022/11/16 13:21:36;;;;;;;1.20;0.90;;;14.30;99.90;;;;;;5092845;28;21116;-35
2022/11/16 13:24:29;;;;;;;3.23;1.17;;;14.30;99.90;;;;;;5129551;27;20497;-35
2022/11/16 13:27:10;;;;;;;3.57;1.30;;;14.30;99.90;;;;;;5133769;27;20416;-35
2022/11/16 13:30:16;;;;;;;3.00;1.10;;;14.30;99.90;;;;;;5133559;27;20408;-35
2022/11/16 13:32:54;;;;;;;2.97;1.00;;;14.20;99.90;;;;;;5131808;27;20423;-35
2022/11/16 13:35:21;;;;;;;4.33;1.47;;;14.20;99.90;;;;;;5133765;27;20444;-35
2022/11/16 13:37:49;;;;;;;3.37;1.10;;;14.20;99.90;;;;;;5133489;27;20429;-35
2022/11/16 13:40:28;;;;;;;2.73;1.30;;;14.10;99.90;;;;;;5131981;27;20619;-35
2022/11/16 13:43:03;;;;;;;3.47;1.30;;;14.20;99.90;;;;;;5132892;27;20791;-35
2022/11/16 13:45:34;;;;;;;4.63;1.70;;;14.20;99.90;;;;;;5133571;27;20408;-35
2022/11/16 13:48:02;;;;;;;3.30;1.00;;;14.20;99.90;;;;;;5133240;27;20421;-35
2022/11/16 13:50:33;;;;;;;6.07;1.20;;;14.20;99.90;;;;;;5133069;27;20419;-36
2022/11/16 13:53:11;;;;;;;2.73;1.43;;;14.10;99.90;;;;;;5132998;27;20565;-35
2022/11/16 13:55:42;;;;;;;2.70;1.20;;;14.10;99.90;;;;;;5133403;27;20503;-35